sensor_id;sensor_type;location;lat;lon;timestamp;P1;durP1;ratioP1;P2;durP2;ratioP2
25057;SDS011;13057;50.978;11.034;2022-09-17T00:01:32;5.70;;;1.40;;
25057;SDS011;13057;50.978;11.034;2022-09-17T00:03:59;3.13;;;1.10;;
25057;SDS011;13057;50.978;11.034;2022-09-17T00:06:28;2.53;;;1.13;;
25057;SDS011;13057;50.978;11.034;2022-09-17T00:08:54;6.75;;;2.35;;
25057;SDS011;13057;50.978;11.034;2022-09-17T00:11:22;5.82;;;1.10;;
25057;SDS011;13057;50.978;11.034;2022-09-17T00:13:50;2.22;;;1.13;;
25057;SDS011;13057;50.978;11.034;2022-09-17T00:16:25;5.85;;;1.48;;
25057;SDS011;13057;50.978;11.034;2022-09-17T00:18:55;2.75;;;1.08;;
25057;SDS011;13057;50.978;11.034;2022-09-17T00:21:23;2.05;;;1.20;;
25057;SDS011;13057;50.978;11.034;2022-09-17T00:23:53;2.40;;;1.42;;
25057;SDS011;13057;50.978;11.034;2022-09-17T00:26:20;2.35;;;1.42;;
25057;SDS011;13057;50.978;11.034;2022-09-17T00:28:48;6.88;;;1.38;;
25057;SDS011;13057;50.978;11.034;2022-09-17T00:31:15;3.65;;;1.20;;
25057;SDS011;13057;50.978;11.034;2022-09-17T00:33:41;6.28;;;1.40;;
25057;SDS011;13057;50.978;11.034;2022-09-17T00:36:07;5.28;;;1.30;;
25057;SDS011;13057;50.978;11.034;2022-09-17T00:38:33;3.83;;;1.52;;
25057;SDS011;13057;50.978;11.034;2022-09-17T00:40:59;1.88;;;0.90;;
25057;SDS011;13057;50.978;11.034;2022-09-17T00:43:31;3.97;;;1.40;;
25057;SDS011;13057;50.978;11.034;2022-09-17T00:46:01;4.63;;;1.60;;
25057;SDS011;13057;50.978;11.034;2022-09-17T00:48:28;2.42;;;1.30;;
25057;SDS011;13057;50.978;11.034;2022-09-17T00:50:55;5.13;;;1.70;;
25057;SDS011;13057;50.978;11.034;2022-09-17T00:53:23;4.97;;;1.50;;
25057;SDS011;13057;50.978;11.034;2022-09-17T00:56:00;6.68;;;1.80;;
25057;SDS011;13057;50.978;11.034;2022-09-17T00:58:31;3.47;;;1.90;;
25057;SDS011;13057;50.978;11.034;2022-09-17T01:00:59;5.13;;;1.50;;
25057;SDS011;13057;50.978;11.034;2022-09-17T01:03:25;4.32;;;1.75;;
25057;SDS011;13057;50.978;11.034;2022-09-17T01:05:55;3.85;;;1.60;;
25057;SDS011;13057;50.978;11.034;2022-09-17T01:08:39;6.43;;;1.90;;
25057;SDS011;13057;50.978;11.034;2022-09-17T01:11:35;5.60;;;1.70;;
25057;SDS011;13057;50.978;11.034;2022-09-17T01:17:16;3.00;;;1.60;;
25057;SDS011;13057;50.978;11.034;2022-09-17T01:20:00;3.60;;;1.27;;
25057;SDS011;13057;50.978;11.034;2022-09-17T01:22:58;4.50;;;1.30;;
25057;SDS011;13057;50.978;11.034;2022-09-17T01:25:37;4.68;;;1.40;;
25057;SDS011;13057;50.978;11.034;2022-09-17T01:28:28;3.38;;;1.50;;
25057;SDS011;13057;50.978;11.034;2022-09-17T01:31:09;2.53;;;1.55;;
25057;SDS011;13057;50.978;11.034;2022-09-17T01:33:47;2.58;;;1.20;;
25057;SDS011;13057;50.978;11.034;2022-09-17T01:36:32;3.83;;;1.50;;
25057;SDS011;13057;50.978;11.034;2022-09-17T01:39:16;4.13;;;1.48;;
25057;SDS011;13057;50.978;11.034;2022-09-17T01:41:54;4.47;;;1.63;;
25057;SDS011;13057;50.978;11.034;2022-09-17T01:44:30;2.15;;;1.23;;
25057;SDS011;13057;50.978;11.034;2022-09-17T01:47:07;3.78;;;1.58;;
25057;SDS011;13057;50.978;11.034;2022-09-17T01:49:40;3.55;;;1.35;;
25057;SDS011;13057;50.978;11.034;2022-09-17T01:52:07;2.75;;;1.27;;
25057;SDS011;13057;50.978;11.034;2022-09-17T01:54:35;3.30;;;1.30;;
25057;SDS011;13057;50.978;11.034;2022-09-17T01:57:07;3.05;;;1.35;;
25057;SDS011;13057;50.978;11.034;2022-09-17T01:59:45;3.28;;;0.80;;
25057;SDS011;13057;50.978;11.034;2022-09-17T02:02:19;2.10;;;0.82;;
25057;SDS011;13057;50.978;11.034;2022-09-17T02:04:56;2.08;;;0.93;;
25057;SDS011;13057;50.978;11.034;2022-09-17T02:07:29;2.53;;;1.10;;
25057;SDS011;13057;50.978;11.034;2022-09-17T02:09:59;2.05;;;1.10;;
25057;SDS011;13057;50.978;11.034;2022-09-17T02:12:32;1.25;;;0.80;;
25057;SDS011;13057;50.978;11.034;2022-09-17T02:15:02;2.15;;;0.80;;
25057;SDS011;13057;50.978;11.034;2022-09-17T02:17:36;1.85;;;1.25;;
25057;SDS011;13057;50.978;11.034;2022-09-17T02:20:10;2.85;;;1.10;;
25057;SDS011;13057;50.978;11.034;2022-09-17T02:22:38;2.40;;;1.05;;
25057;SDS011;13057;50.978;11.034;2022-09-17T02:25:19;1.75;;;0.90;;
25057;SDS011;13057;50.978;11.034;2022-09-17T02:28:02;1.60;;;1.00;;
25057;SDS011;13057;50.978;11.034;2022-09-17T02:30:42;4.03;;;1.05;;
25057;SDS011;13057;50.978;11.034;2022-09-17T02:33:09;4.50;;;1.08;;
25057;SDS011;13057;50.978;11.034;2022-09-17T02:35:38;2.47;;;0.93;;
25057;SDS011;13057;50.978;11.034;2022-09-17T02:38:04;4.63;;;1.08;;
25057;SDS011;13057;50.978;11.034;2022-09-17T02:40:34;3.58;;;1.30;;
25057;SDS011;13057;50.978;11.034;2022-09-17T02:43:09;2.50;;;0.98;;
25057;SDS011;13057;50.978;11.034;2022-09-17T02:45:49;1.80;;;0.93;;
25057;SDS011;13057;50.978;11.034;2022-09-17T02:48:49;2.70;;;1.30;;
25057;SDS011;13057;50.978;11.034;2022-09-17T02:51:44;2.67;;;1.33;;
25057;SDS011;13057;50.978;11.034;2022-09-17T02:54:30;1.85;;;1.13;;
25057;SDS011;13057;50.978;11.034;2022-09-17T02:57:12;1.55;;;0.90;;
25057;SDS011;13057;50.978;11.034;2022-09-17T02:59:55;2.05;;;1.20;;
25057;SDS011;13057;50.978;11.034;2022-09-17T03:02:35;1.42;;;0.90;;
25057;SDS011;13057;50.978;11.034;2022-09-17T03:05:07;1.00;;;0.90;;
25057;SDS011;13057;50.978;11.034;2022-09-17T03:07:34;1.58;;;1.02;;
25057;SDS011;13057;50.978;11.034;2022-09-17T03:10:00;1.50;;;0.90;;
25057;SDS011;13057;50.978;11.034;2022-09-17T03:12:26;1.42;;;0.80;;
25057;SDS011;13057;50.978;11.034;2022-09-17T03:14:53;2.13;;;0.85;;
25057;SDS011;13057;50.978;11.034;2022-09-17T03:17:18;1.50;;;0.90;;
25057;SDS011;13057;50.978;11.034;2022-09-17T03:19:44;2.92;;;0.90;;
25057;SDS011;13057;50.978;11.034;2022-09-17T03:22:11;0.98;;;0.70;;
25057;SDS011;13057;50.978;11.034;2022-09-17T03:24:37;1.30;;;0.80;;
25057;SDS011;13057;50.978;11.034;2022-09-17T03:27:02;2.10;;;0.90;;
25057;SDS011;13057;50.978;11.034;2022-09-17T03:29:28;2.50;;;0.80;;
25057;SDS011;13057;50.978;11.034;2022-09-17T03:31:54;2.75;;;0.80;;
25057;SDS011;13057;50.978;11.034;2022-09-17T03:34:20;1.20;;;0.70;;
25057;SDS011;13057;50.978;11.034;2022-09-17T03:36:46;1.38;;;0.80;;
25057;SDS011;13057;50.978;11.034;2022-09-17T03:39:12;2.72;;;0.98;;
25057;SDS011;13057;50.978;11.034;2022-09-17T03:41:38;0.82;;;0.47;;
25057;SDS011;13057;50.978;11.034;2022-09-17T03:44:04;1.45;;;0.70;;
25057;SDS011;13057;50.978;11.034;2022-09-17T03:46:30;1.05;;;0.60;;
25057;SDS011;13057;50.978;11.034;2022-09-17T03:48:56;1.30;;;0.60;;
25057;SDS011;13057;50.978;11.034;2022-09-17T03:51:22;0.68;;;0.57;;
25057;SDS011;13057;50.978;11.034;2022-09-17T03:53:48;1.25;;;0.68;;
25057;SDS011;13057;50.978;11.034;2022-09-17T03:56:14;0.68;;;0.50;;
25057;SDS011;13057;50.978;11.034;2022-09-17T03:58:40;3.60;;;0.80;;
25057;SDS011;13057;50.978;11.034;2022-09-17T04:01:06;0.75;;;0.57;;
25057;SDS011;13057;50.978;11.034;2022-09-17T04:03:32;1.90;;;0.60;;
25057;SDS011;13057;50.978;11.034;2022-09-17T04:05:57;0.82;;;0.57;;
25057;SDS011;13057;50.978;11.034;2022-09-17T04:08:24;1.33;;;0.50;;
25057;SDS011;13057;50.978;11.034;2022-09-17T04:10:50;0.68;;;0.50;;
25057;SDS011;13057;50.978;11.034;2022-09-17T04:13:16;2.35;;;0.50;;
25057;SDS011;13057;50.978;11.034;2022-09-17T04:15:43;1.65;;;0.60;;
25057;SDS011;13057;50.978;11.034;2022-09-17T04:18:10;3.42;;;0.57;;
25057;SDS011;13057;50.978;11.034;2022-09-17T04:20:36;2.10;;;0.60;;
25057;SDS011;13057;50.978;11.034;2022-09-17T04:23:02;1.58;;;0.60;;
25057;SDS011;13057;50.978;11.034;2022-09-17T04:25:28;1.70;;;0.50;;
25057;SDS011;13057;50.978;11.034;2022-09-17T04:27:54;0.82;;;0.60;;
25057;SDS011;13057;50.978;11.034;2022-09-17T04:30:20;1.15;;;0.50;;
25057;SDS011;13057;50.978;11.034;2022-09-17T04:32:46;0.60;;;0.50;;
25057;SDS011;13057;50.978;11.034;2022-09-17T04:35:12;0.80;;;0.50;;
25057;SDS011;13057;50.978;11.034;2022-09-17T04:37:38;1.65;;;0.80;;
25057;SDS011;13057;50.978;11.034;2022-09-17T04:40:04;4.40;;;0.57;;
25057;SDS011;13057;50.978;11.034;2022-09-17T04:42:30;1.75;;;0.60;;
25057;SDS011;13057;50.978;11.034;2022-09-17T04:44:56;3.17;;;0.70;;
25057;SDS011;13057;50.978;11.034;2022-09-17T04:47:23;2.47;;;0.60;;
25057;SDS011;13057;50.978;11.034;2022-09-17T04:49:49;1.40;;;0.70;;
25057;SDS011;13057;50.978;11.034;2022-09-17T04:52:14;0.95;;;0.45;;
25057;SDS011;13057;50.978;11.034;2022-09-17T04:54:41;1.88;;;0.52;;
25057;SDS011;13057;50.978;11.034;2022-09-17T04:57:07;1.05;;;0.43;;
25057;SDS011;13057;50.978;11.034;2022-09-17T04:59:32;0.77;;;0.50;;
25057;SDS011;13057;50.978;11.034;2022-09-17T05:01:58;0.60;;;0.50;;
25057;SDS011;13057;50.978;11.034;2022-09-17T05:04:24;2.28;;;0.70;;
25057;SDS011;13057;50.978;11.034;2022-09-17T05:06:50;1.15;;;0.60;;
25057;SDS011;13057;50.978;11.034;2022-09-17T05:09:15;3.03;;;0.82;;
25057;SDS011;13057;50.978;11.034;2022-09-17T05:11:42;2.00;;;0.68;;
25057;SDS011;13057;50.978;11.034;2022-09-17T05:14:07;3.55;;;0.77;;
25057;SDS011;13057;50.978;11.034;2022-09-17T05:16:33;1.77;;;0.80;;
25057;SDS011;13057;50.978;11.034;2022-09-17T05:18:59;2.03;;;0.50;;
25057;SDS011;13057;50.978;11.034;2022-09-17T05:21:26;1.65;;;0.57;;
25057;SDS011;13057;50.978;11.034;2022-09-17T05:23:51;3.95;;;1.42;;
25057;SDS011;13057;50.978;11.034;2022-09-17T05:26:17;0.57;;;0.50;;
25057;SDS011;13057;50.978;11.034;2022-09-17T05:28:43;4.60;;;0.60;;
25057;SDS011;13057;50.978;11.034;2022-09-17T05:31:09;1.27;;;0.55;;
25057;SDS011;13057;50.978;11.034;2022-09-17T05:33:35;2.03;;;0.70;;
25057;SDS011;13057;50.978;11.034;2022-09-17T05:36:01;2.45;;;0.60;;
25057;SDS011;13057;50.978;11.034;2022-09-17T05:38:27;1.38;;;0.73;;
25057;SDS011;13057;50.978;11.034;2022-09-17T05:40:52;0.60;;;0.52;;
25057;SDS011;13057;50.978;11.034;2022-09-17T05:43:18;1.63;;;0.90;;
25057;SDS011;13057;50.978;11.034;2022-09-17T05:45:44;1.48;;;0.60;;
25057;SDS011;13057;50.978;11.034;2022-09-17T05:48:11;1.30;;;0.70;;
25057;SDS011;13057;50.978;11.034;2022-09-17T05:50:38;2.00;;;0.90;;
25057;SDS011;13057;50.978;11.034;2022-09-17T05:53:09;0.98;;;0.50;;
25057;SDS011;13057;50.978;11.034;2022-09-17T05:55:36;1.55;;;0.52;;
25057;SDS011;13057;50.978;11.034;2022-09-17T05:58:11;0.82;;;0.60;;
25057;SDS011;13057;50.978;11.034;2022-09-17T06:00:39;1.85;;;0.68;;
25057;SDS011;13057;50.978;11.034;2022-09-17T06:03:07;2.03;;;1.30;;
25057;SDS011;13057;50.978;11.034;2022-09-17T06:05:34;4.25;;;0.98;;
25057;SDS011;13057;50.978;11.034;2022-09-17T06:08:00;3.55;;;0.60;;
25057;SDS011;13057;50.978;11.034;2022-09-17T06:10:26;1.13;;;0.50;;
25057;SDS011;13057;50.978;11.034;2022-09-17T06:12:54;4.40;;;0.90;;
25057;SDS011;13057;50.978;11.034;2022-09-17T06:15:20;1.02;;;0.60;;
25057;SDS011;13057;50.978;11.034;2022-09-17T06:17:46;1.17;;;0.40;;
25057;SDS011;13057;50.978;11.034;2022-09-17T06:20:12;1.73;;;0.70;;
25057;SDS011;13057;50.978;11.034;2022-09-17T06:22:41;1.10;;;0.55;;
25057;SDS011;13057;50.978;11.034;2022-09-17T06:25:07;2.88;;;0.70;;
25057;SDS011;13057;50.978;11.034;2022-09-17T06:27:33;2.05;;;0.60;;
25057;SDS011;13057;50.978;11.034;2022-09-17T06:30:00;2.28;;;0.60;;
25057;SDS011;13057;50.978;11.034;2022-09-17T06:32:27;1.73;;;0.77;;
25057;SDS011;13057;50.978;11.034;2022-09-17T06:34:53;3.35;;;0.88;;
25057;SDS011;13057;50.978;11.034;2022-09-17T06:37:28;2.20;;;0.55;;
25057;SDS011;13057;50.978;11.034;2022-09-17T06:39:55;2.38;;;0.80;;
25057;SDS011;13057;50.978;11.034;2022-09-17T06:42:20;1.58;;;0.60;;
25057;SDS011;13057;50.978;11.034;2022-09-17T06:44:46;1.08;;;0.70;;
25057;SDS011;13057;50.978;11.034;2022-09-17T06:47:13;0.98;;;0.65;;
25057;SDS011;13057;50.978;11.034;2022-09-17T06:49:39;4.00;;;0.80;;
25057;SDS011;13057;50.978;11.034;2022-09-17T06:52:05;2.80;;;0.70;;
25057;SDS011;13057;50.978;11.034;2022-09-17T06:54:31;2.78;;;0.60;;
25057;SDS011;13057;50.978;11.034;2022-09-17T06:56:57;2.80;;;0.65;;
25057;SDS011;13057;50.978;11.034;2022-09-17T06:59:23;1.98;;;0.43;;
25057;SDS011;13057;50.978;11.034;2022-09-17T07:01:50;4.15;;;0.73;;
25057;SDS011;13057;50.978;11.034;2022-09-17T07:04:16;6.22;;;1.15;;
25057;SDS011;13057;50.978;11.034;2022-09-17T07:06:43;5.88;;;1.13;;
25057;SDS011;13057;50.978;11.034;2022-09-17T07:09:09;3.45;;;1.02;;
25057;SDS011;13057;50.978;11.034;2022-09-17T07:11:36;7.18;;;1.15;;
25057;SDS011;13057;50.978;11.034;2022-09-17T07:14:02;5.78;;;1.20;;
25057;SDS011;13057;50.978;11.034;2022-09-17T07:16:29;4.55;;;1.20;;
25057;SDS011;13057;50.978;11.034;2022-09-17T07:19:00;2.83;;;0.82;;
25057;SDS011;13057;50.978;11.034;2022-09-17T07:21:27;4.45;;;1.35;;
25057;SDS011;13057;50.978;11.034;2022-09-17T07:23:52;6.97;;;1.40;;
25057;SDS011;13057;50.978;11.034;2022-09-17T07:26:18;8.02;;;1.88;;
25057;SDS011;13057;50.978;11.034;2022-09-17T07:28:44;6.82;;;1.10;;
25057;SDS011;13057;50.978;11.034;2022-09-17T07:31:11;3.90;;;1.15;;
25057;SDS011;13057;50.978;11.034;2022-09-17T07:33:37;11.43;;;1.67;;
25057;SDS011;13057;50.978;11.034;2022-09-17T07:36:05;7.55;;;1.90;;
25057;SDS011;13057;50.978;11.034;2022-09-17T07:38:33;8.20;;;1.23;;
25057;SDS011;13057;50.978;11.034;2022-09-17T07:41:00;6.13;;;1.40;;
25057;SDS011;13057;50.978;11.034;2022-09-17T07:43:29;6.30;;;1.40;;
25057;SDS011;13057;50.978;11.034;2022-09-17T07:45:57;4.10;;;1.10;;
25057;SDS011;13057;50.978;11.034;2022-09-17T07:48:23;6.85;;;1.40;;
25057;SDS011;13057;50.978;11.034;2022-09-17T07:50:53;8.88;;;1.05;;
25057;SDS011;13057;50.978;11.034;2022-09-17T07:53:19;9.07;;;1.70;;
25057;SDS011;13057;50.978;11.034;2022-09-17T07:55:51;10.02;;;1.63;;
25057;SDS011;13057;50.978;11.034;2022-09-17T07:58:18;6.93;;;1.50;;
25057;SDS011;13057;50.978;11.034;2022-09-17T08:00:45;4.47;;;1.20;;
25057;SDS011;13057;50.978;11.034;2022-09-17T08:03:10;5.88;;;1.50;;
25057;SDS011;13057;50.978;11.034;2022-09-17T08:05:36;7.43;;;1.20;;
25057;SDS011;13057;50.978;11.034;2022-09-17T08:08:05;7.22;;;1.10;;
25057;SDS011;13057;50.978;11.034;2022-09-17T08:10:31;10.18;;;1.55;;
25057;SDS011;13057;50.978;11.034;2022-09-17T08:12:57;13.05;;;1.90;;
25057;SDS011;13057;50.978;11.034;2022-09-17T08:15:24;6.95;;;1.63;;
25057;SDS011;13057;50.978;11.034;2022-09-17T08:17:51;10.70;;;1.70;;
25057;SDS011;13057;50.978;11.034;2022-09-17T08:20:17;8.18;;;1.38;;
25057;SDS011;13057;50.978;11.034;2022-09-17T08:22:43;7.60;;;1.35;;
25057;SDS011;13057;50.978;11.034;2022-09-17T08:25:09;7.05;;;1.40;;
25057;SDS011;13057;50.978;11.034;2022-09-17T08:27:36;6.78;;;1.35;;
25057;SDS011;13057;50.978;11.034;2022-09-17T08:30:03;10.82;;;1.60;;
25057;SDS011;13057;50.978;11.034;2022-09-17T08:32:30;5.18;;;1.48;;
25057;SDS011;13057;50.978;11.034;2022-09-17T08:34:56;7.03;;;1.42;;
25057;SDS011;13057;50.978;11.034;2022-09-17T08:37:22;5.88;;;1.42;;
25057;SDS011;13057;50.978;11.034;2022-09-17T08:39:48;7.47;;;1.42;;
25057;SDS011;13057;50.978;11.034;2022-09-17T08:42:16;11.15;;;2.05;;
25057;SDS011;13057;50.978;11.034;2022-09-17T08:44:51;6.63;;;1.40;;
25057;SDS011;13057;50.978;11.034;2022-09-17T08:47:27;6.15;;;1.10;;
25057;SDS011;13057;50.978;11.034;2022-09-17T08:50:01;9.48;;;1.35;;
25057;SDS011;13057;50.978;11.034;2022-09-17T08:55:20;4.28;;;1.50;;
25057;SDS011;13057;50.978;11.034;2022-09-17T08:58:19;9.07;;;1.67;;
25057;SDS011;13057;50.978;11.034;2022-09-17T09:00:50;4.55;;;1.42;;
25057;SDS011;13057;50.978;11.034;2022-09-17T09:03:35;7.30;;;1.60;;
25057;SDS011;13057;50.978;11.034;2022-09-17T09:06:18;6.57;;;1.67;;
25057;SDS011;13057;50.978;11.034;2022-09-17T09:08:53;6.60;;;1.15;;
25057;SDS011;13057;50.978;11.034;2022-09-17T09:11:25;4.82;;;1.27;;
25057;SDS011;13057;50.978;11.034;2022-09-17T09:13:59;9.82;;;1.58;;
25057;SDS011;13057;50.978;11.034;2022-09-17T09:16:32;10.45;;;1.58;;
25057;SDS011;13057;50.978;11.034;2022-09-17T09:19:09;5.35;;;1.23;;
25057;SDS011;13057;50.978;11.034;2022-09-17T09:21:51;10.63;;;1.75;;
25057;SDS011;13057;50.978;11.034;2022-09-17T09:24:47;5.75;;;1.42;;
25057;SDS011;13057;50.978;11.034;2022-09-17T09:27:26;6.68;;;1.08;;
25057;SDS011;13057;50.978;11.034;2022-09-17T09:30:01;6.05;;;1.25;;
25057;SDS011;13057;50.978;11.034;2022-09-17T09:32:34;12.82;;;1.27;;
25057;SDS011;13057;50.978;11.034;2022-09-17T09:35:17;12.50;;;1.98;;
25057;SDS011;13057;50.978;11.034;2022-09-17T09:37:51;7.55;;;1.33;;
25057;SDS011;13057;50.978;11.034;2022-09-17T09:40:25;11.50;;;1.60;;
25057;SDS011;13057;50.978;11.034;2022-09-17T09:43:10;5.77;;;1.50;;
25057;SDS011;13057;50.978;11.034;2022-09-17T09:45:55;7.75;;;1.60;;
25057;SDS011;13057;50.978;11.034;2022-09-17T09:51:33;10.00;;;1.65;;
25057;SDS011;13057;50.978;11.034;2022-09-17T09:54:12;10.45;;;1.60;;
25057;SDS011;13057;50.978;11.034;2022-09-17T09:57:03;9.27;;;1.58;;
25057;SDS011;13057;50.978;11.034;2022-09-17T09:59:33;4.80;;;0.95;;
25057;SDS011;13057;50.978;11.034;2022-09-17T10:02:00;6.78;;;1.60;;
25057;SDS011;13057;50.978;11.034;2022-09-17T10:04:27;9.18;;;2.10;;
25057;SDS011;13057;50.978;11.034;2022-09-17T10:06:59;4.78;;;1.48;;
25057;SDS011;13057;50.978;11.034;2022-09-17T10:09:27;9.27;;;1.95;;
25057;SDS011;13057;50.978;11.034;2022-09-17T10:12:00;8.77;;;1.67;;
25057;SDS011;13057;50.978;11.034;2022-09-17T10:14:29;8.45;;;1.92;;
25057;SDS011;13057;50.978;11.034;2022-09-17T10:19:40;5.40;;;1.27;;
25057;SDS011;13057;50.978;11.034;2022-09-17T10:24:53;8.07;;;0.98;;
25057;SDS011;13057;50.978;11.034;2022-09-17T10:27:21;6.18;;;1.70;;
25057;SDS011;13057;50.978;11.034;2022-09-17T10:29:51;6.05;;;1.35;;
25057;SDS011;13057;50.978;11.034;2022-09-17T10:32:25;7.22;;;1.50;;
25057;SDS011;13057;50.978;11.034;2022-09-17T10:34:56;9.30;;;2.03;;
25057;SDS011;13057;50.978;11.034;2022-09-17T10:37:32;6.03;;;1.13;;
25057;SDS011;13057;50.978;11.034;2022-09-17T10:40:24;5.55;;;1.65;;
25057;SDS011;13057;50.978;11.034;2022-09-17T10:45:43;8.20;;;1.50;;
25057;SDS011;13057;50.978;11.034;2022-09-17T10:48:20;11.73;;;2.85;;
25057;SDS011;13057;50.978;11.034;2022-09-17T10:50:47;6.43;;;1.35;;
25057;SDS011;13057;50.978;11.034;2022-09-17T10:53:16;6.13;;;1.27;;
25057;SDS011;13057;50.978;11.034;2022-09-17T10:55:47;7.78;;;1.50;;
25057;SDS011;13057;50.978;11.034;2022-09-17T10:58:26;4.28;;;1.60;;
25057;SDS011;13057;50.978;11.034;2022-09-17T11:01:09;4.13;;;1.13;;
25057;SDS011;13057;50.978;11.034;2022-09-17T11:03:59;5.65;;;1.35;;
25057;SDS011;13057;50.978;11.034;2022-09-17T11:12:27;4.85;;;1.00;;
25057;SDS011;13057;50.978;11.034;2022-09-17T11:15:18;4.43;;;1.45;;
25057;SDS011;13057;50.978;11.034;2022-09-17T11:18:04;7.47;;;1.85;;
25057;SDS011;13057;50.978;11.034;2022-09-17T11:20:55;9.20;;;4.00;;
25057;SDS011;13057;50.978;11.034;2022-09-17T11:26:27;5.35;;;1.40;;
25057;SDS011;13057;50.978;11.034;2022-09-17T11:32:29;1.15;;;0.68;;
25057;SDS011;13057;50.978;11.034;2022-09-17T11:35:14;4.43;;;1.00;;
25057;SDS011;13057;50.978;11.034;2022-09-17T11:37:51;3.00;;;1.10;;
25057;SDS011;13057;50.978;11.034;2022-09-17T11:40:31;5.40;;;1.13;;
25057;SDS011;13057;50.978;11.034;2022-09-17T11:43:09;5.30;;;1.40;;
25057;SDS011;13057;50.978;11.034;2022-09-17T11:45:44;8.50;;;1.73;;
25057;SDS011;13057;50.978;11.034;2022-09-17T11:48:21;4.70;;;1.50;;
25057;SDS011;13057;50.978;11.034;2022-09-17T11:50:56;6.03;;;1.25;;
25057;SDS011;13057;50.978;11.034;2022-09-17T11:56:07;8.50;;;1.27;;
25057;SDS011;13057;50.978;11.034;2022-09-17T11:58:47;7.30;;;1.35;;
25057;SDS011;13057;50.978;11.034;2022-09-17T12:01:27;2.90;;;0.90;;
25057;SDS011;13057;50.978;11.034;2022-09-17T12:06:54;10.98;;;1.30;;
25057;SDS011;13057;50.978;11.034;2022-09-17T12:09:47;4.05;;;1.10;;
25057;SDS011;13057;50.978;11.034;2022-09-17T12:12:19;3.42;;;1.08;;
25057;SDS011;13057;50.978;11.034;2022-09-17T12:14:49;6.07;;;1.33;;
25057;SDS011;13057;50.978;11.034;2022-09-17T12:17:24;4.68;;;1.20;;
25057;SDS011;13057;50.978;11.034;2022-09-17T12:19:56;6.18;;;0.98;;
25057;SDS011;13057;50.978;11.034;2022-09-17T12:22:33;4.32;;;1.00;;
25057;SDS011;13057;50.978;11.034;2022-09-17T12:25:10;6.38;;;1.42;;
25057;SDS011;13057;50.978;11.034;2022-09-17T12:27:48;5.70;;;1.05;;
25057;SDS011;13057;50.978;11.034;2022-09-17T12:30:28;4.95;;;1.48;;
25057;SDS011;13057;50.978;11.034;2022-09-17T12:33:12;3.20;;;1.00;;
25057;SDS011;13057;50.978;11.034;2022-09-17T12:35:53;4.03;;;1.02;;
25057;SDS011;13057;50.978;11.034;2022-09-17T12:41:34;3.70;;;1.10;;
25057;SDS011;13057;50.978;11.034;2022-09-17T12:44:24;6.80;;;1.17;;
25057;SDS011;13057;50.978;11.034;2022-09-17T12:50:15;4.22;;;1.52;;
25057;SDS011;13057;50.978;11.034;2022-09-17T12:53:00;2.05;;;0.65;;
25057;SDS011;13057;50.978;11.034;2022-09-17T12:55:52;5.57;;;0.73;;
25057;SDS011;13057;50.978;11.034;2022-09-17T12:58:35;1.83;;;0.50;;
25057;SDS011;13057;50.978;11.034;2022-09-17T13:01:17;1.58;;;0.60;;
25057;SDS011;13057;50.978;11.034;2022-09-17T13:03:54;2.70;;;0.65;;
25057;SDS011;13057;50.978;11.034;2022-09-17T13:06:46;5.55;;;2.58;;
25057;SDS011;13057;50.978;11.034;2022-09-17T13:09:42;3.30;;;2.30;;
25057;SDS011;13057;50.978;11.034;2022-09-17T13:12:32;2.58;;;1.02;;
25057;SDS011;13057;50.978;11.034;2022-09-17T13:18:02;2.08;;;1.17;;
25057;SDS011;13057;50.978;11.034;2022-09-17T13:20:40;0.80;;;0.40;;
25057;SDS011;13057;50.978;11.034;2022-09-17T13:25:59;2.95;;;1.08;;
25057;SDS011;13057;50.978;11.034;2022-09-17T13:28:36;3.35;;;1.75;;
25057;SDS011;13057;50.978;11.034;2022-09-17T13:31:04;2.80;;;1.50;;
25057;SDS011;13057;50.978;11.034;2022-09-17T13:39:05;2.67;;;0.50;;
25057;SDS011;13057;50.978;11.034;2022-09-17T13:41:35;0.75;;;0.43;;
25057;SDS011;13057;50.978;11.034;2022-09-17T13:44:04;4.53;;;0.52;;
25057;SDS011;13057;50.978;11.034;2022-09-17T13:46:31;3.28;;;0.77;;
25057;SDS011;13057;50.978;11.034;2022-09-17T13:49:00;3.85;;;0.80;;
25057;SDS011;13057;50.978;11.034;2022-09-17T13:51:43;3.67;;;0.75;;
25057;SDS011;13057;50.978;11.034;2022-09-17T13:54:11;3.70;;;1.30;;
25057;SDS011;13057;50.978;11.034;2022-09-17T13:56:41;2.53;;;0.80;;
25057;SDS011;13057;50.978;11.034;2022-09-17T13:59:15;1.88;;;0.95;;
25057;SDS011;13057;50.978;11.034;2022-09-17T14:01:55;5.60;;;0.90;;
25057;SDS011;13057;50.978;11.034;2022-09-17T14:10:00;3.42;;;0.80;;
25057;SDS011;13057;50.978;11.034;2022-09-17T14:17:59;5.22;;;0.95;;
25057;SDS011;13057;50.978;11.034;2022-09-17T14:20:28;2.40;;;0.88;;
25057;SDS011;13057;50.978;11.034;2022-09-17T14:22:58;3.03;;;0.90;;
25057;SDS011;13057;50.978;11.034;2022-09-17T14:25:31;7.93;;;2.72;;
25057;SDS011;13057;50.978;11.034;2022-09-17T14:28:12;9.88;;;0.90;;
25057;SDS011;13057;50.978;11.034;2022-09-17T14:30:53;2.63;;;0.70;;
25057;SDS011;13057;50.978;11.034;2022-09-17T14:33:21;5.05;;;1.90;;
25057;SDS011;13057;50.978;11.034;2022-09-17T14:35:55;2.67;;;0.82;;
25057;SDS011;13057;50.978;11.034;2022-09-17T14:38:30;3.33;;;1.10;;
25057;SDS011;13057;50.978;11.034;2022-09-17T14:41:05;5.60;;;0.90;;
25057;SDS011;13057;50.978;11.034;2022-09-17T14:43:43;1.05;;;0.57;;
25057;SDS011;13057;50.978;11.034;2022-09-17T14:46:18;2.78;;;0.50;;
25057;SDS011;13057;50.978;11.034;2022-09-17T14:48:47;3.13;;;1.55;;
25057;SDS011;13057;50.978;11.034;2022-09-17T14:51:24;1.95;;;0.98;;
25057;SDS011;13057;50.978;11.034;2022-09-17T14:56:42;4.07;;;1.13;;
25057;SDS011;13057;50.978;11.034;2022-09-17T14:59:18;1.83;;;0.90;;
25057;SDS011;13057;50.978;11.034;2022-09-17T15:01:49;0.88;;;0.30;;
25057;SDS011;13057;50.978;11.034;2022-09-17T15:04:19;1.45;;;0.63;;
25057;SDS011;13057;50.978;11.034;2022-09-17T15:06:47;1.33;;;0.82;;
25057;SDS011;13057;50.978;11.034;2022-09-17T15:09:21;0.50;;;0.40;;
25057;SDS011;13057;50.978;11.034;2022-09-17T15:11:48;1.52;;;0.60;;
25057;SDS011;13057;50.978;11.034;2022-09-17T15:14:19;2.13;;;0.75;;
25057;SDS011;13057;50.978;11.034;2022-09-17T15:16:48;0.93;;;0.60;;
25057;SDS011;13057;50.978;11.034;2022-09-17T15:19:19;1.90;;;1.00;;
25057;SDS011;13057;50.978;11.034;2022-09-17T15:21:49;2.33;;;0.65;;
25057;SDS011;13057;50.978;11.034;2022-09-17T15:27:12;1.33;;;0.60;;
25057;SDS011;13057;50.978;11.034;2022-09-17T15:29:49;2.38;;;1.10;;
25057;SDS011;13057;50.978;11.034;2022-09-17T15:32:18;2.28;;;1.67;;
25057;SDS011;13057;50.978;11.034;2022-09-17T15:34:44;2.10;;;1.17;;
25057;SDS011;13057;50.978;11.034;2022-09-17T15:37:17;2.10;;;0.98;;
25057;SDS011;13057;50.978;11.034;2022-09-17T15:39:46;1.50;;;0.80;;
25057;SDS011;13057;50.978;11.034;2022-09-17T15:42:17;1.73;;;0.90;;
25057;SDS011;13057;50.978;11.034;2022-09-17T15:44:51;1.80;;;0.88;;
25057;SDS011;13057;50.978;11.034;2022-09-17T15:47:36;1.98;;;0.75;;
25057;SDS011;13057;50.978;11.034;2022-09-17T15:50:16;2.50;;;0.80;;
25057;SDS011;13057;50.978;11.034;2022-09-17T15:52:47;1.85;;;0.70;;
25057;SDS011;13057;50.978;11.034;2022-09-17T15:57:53;2.72;;;0.77;;
25057;SDS011;13057;50.978;11.034;2022-09-17T16:00:21;2.38;;;1.00;;
25057;SDS011;13057;50.978;11.034;2022-09-17T16:02:47;2.83;;;0.80;;
25057;SDS011;13057;50.978;11.034;2022-09-17T16:05:42;2.65;;;1.00;;
25057;SDS011;13057;50.978;11.034;2022-09-17T16:08:15;3.58;;;0.70;;
25057;SDS011;13057;50.978;11.034;2022-09-17T16:10:43;2.35;;;0.68;;
25057;SDS011;13057;50.978;11.034;2022-09-17T16:13:09;2.75;;;0.90;;